Latest Weather Observations for Wilcannia Airport

IDN60801

Issued at 4:03 am EDT Saturday 10 December 2016 (issued every 30 minutes, with the page automatically refreshed every 10 minutes)

About weather observations | Map of weather stations | Latest weather observations for NSW | Other Formats
Station Details ID: 046012 Name: WILCANNIA AERODROME AWS Lat: -31.52 Lon: 143.38 Height: 94.3 m
Data from the previous 72 hours. | See also: Recent months at Wilcannia Airport
Date/Time
EDT
Temp
°C
App
Temp
°C
Dew
Point
°C
Rel
Hum
%
Delta-T
°C
Wind Press
QNH
hPa
Press
MSL
hPa
Rain since
9am
mm
Dir  Spd
km/h
Gust
km/h
Spd
kts
Gust
kts
10/04:00am 12.5 9.0 5.4 62 3.3 SSE 13 13 7 7 1019.1 1018.6 0.0
10/03:30am 13.1 9.6 5.3 59 3.6 SSE 13 13 7 7 1019.1 1018.6 0.0
10/03:00am 13.2 10.1 5.4 59 3.7 SSE 11 13 6 7 1019.2 1018.7 0.0
10/02:30am 13.7 10.2 5.3 57 4.0 SSE 13 15 7 8 1019.3 1018.8 0.0
10/02:00am 13.9 10.3 5.0 55 4.2 S 13 13 7 7 1019.5 1019.0 0.0
10/01:30am 14.1 10.9 4.9 54 4.3 S 11 13 6 7 1019.6 1019.1 0.0
10/01:00am 15.1 11.8 4.5 49 4.9 SSE 11 13 6 7 1019.7 1019.2 0.0
10/12:30am 15.6 11.9 4.6 48 5.2 S 13 17 7 9 1019.7 1019.2 0.0
10/12:00am 15.7 12.0 4.7 48 5.2 S 13 15 7 8 1019.6 1019.1 0.0
 
Date/Time
EDT
Temp
°C
App
Temp
°C
Dew
Point
°C
Rel
Hum
%
Delta-T
°C
Wind Press
QNH
hPa
Press
MSL
hPa
Rain since
9am
mm
Dir  Spd
km/h
Gust
km/h
Spd
kts
Gust
kts
09/11:30pm 16.5 12.8 4.2 44 5.8 SSE 13 15 7 8 1019.6 1019.1 0.0
09/11:00pm 16.5 13.1 3.9 43 5.9 S 11 13 6 7 1019.5 1019.0 0.0
09/10:30pm 16.8 13.3 3.5 41 6.2 S 11 13 6 7 1019.2 1018.7 0.0
09/10:00pm 16.6 13.1 3.7 42 6.0 S 11 13 6 7 1018.9 1018.4 0.0
09/09:30pm 17.8 14.5 2.2 35 7.1 S 9 11 5 6 1018.7 1018.2 0.0
09/09:00pm 19.6 15.7 1.1 29 8.3 SSE 11 13 6 7 1018.3 1017.8 0.0
09/08:30pm 20.8 16.8 0.6 26 9.1 SSE 11 15 6 8 1018.1 1017.6 0.0
09/08:00pm 22.7 18.8 1.1 24 10.0 SSE 11 19 6 10 1017.8 1017.3 0.0
09/07:30pm 23.5 17.9 -0.1 21 10.8 S 19 26 10 14 1017.6 1017.1 0.0
09/07:00pm 23.8 18.2 0.2 21 10.8 SSE 19 26 10 14 1017.2 1016.7 0.0
09/06:30pm 24.4 19.7 0.7 21 11.0 S 15 22 8 12 1017.0 1016.5 0.0
09/06:00pm 24.6 19.5 0.8 21 11.1 SSE 17 30 9 16 1016.9 1016.4 0.0
09/05:30pm 24.7 19.4 1.6 22 11.0 SSW 19 30 10 16 1016.8 1016.3 0.0
09/05:00pm 24.3 17.8 0.6 21 11.0 SSW 24 35 13 19 1016.9 1016.4 0.0
09/04:30pm 23.4 17.3 0.5 22 10.5 S 22 32 12 17 1017.2 1016.7 0.0
09/04:00pm 23.9 18.8 0.9 22 10.7 SSE 17 28 9 15 1017.3 1016.8 0.0
09/03:30pm 23.7 18.2 0.7 22 10.7 SSW 19 28 10 15 1017.5 1017.0 0.0
09/03:00pm 22.7 16.6 0.5 23 10.2 SSW 22 37 12 20 1017.7 1017.2 0.0
09/02:30pm 22.7 17.2 1.7 25 9.8 S 20 33 11 18 1018.1 1017.6 0.0
09/02:00pm 23.1 17.1 3.6 28 9.5 SSW 24 37 13 20 1018.3 1017.8 0.0
09/01:30pm 21.7 16.0 2.9 29 9.0 S 22 37 12 20 1018.6 1018.1 0.0
09/01:00pm 20.5 15.2 1.9 29 8.6 S 19 33 10 18 1018.8 1018.3 0.0
09/12:30pm 20.0 13.8 1.9 30 8.3 SSW 24 39 13 21 1019.0 1018.5 0.0
09/12:00pm 19.4 12.5 2.3 32 7.9 S 28 37 15 20 1019.1 1018.6 0.0
09/11:30am 19.1 12.1 2.0 32 7.8 S 28 39 15 21 1019.2 1018.7 0.0
09/11:00am 18.2 11.3 2.5 35 7.2 SSW 28 41 15 22 1019.2 1018.7 0.0
09/10:30am 17.5 9.7 3.0 38 6.7 S 33 43 18 23 1019.2 1018.7 0.0
09/10:00am 16.9 9.2 3.6 41 6.2 SSW 33 48 18 26 1019.2 1018.7 0.0
09/09:30am 16.6 9.1 3.7 42 6.0 SSW 32 43 17 23 1019.2 1018.7 0.0
09/09:00am 16.9 10.8 4.9 45 5.7 SSW 26 37 14 20 1019.0 1018.5 0.0
09/08:30am 15.6 8.5 5.5 51 4.8 SSW 32 41 17 22 1018.9 1018.4 0.0
09/08:00am 15.1 8.8 5.9 54 4.4 SSW 28 37 15 20 1018.3 1017.8 0.0
09/07:30am 14.4 8.9 6.0 57 4.0 SSW 24 33 13 18 1017.9 1017.4 0.0
09/07:00am 13.5 9.7 5.7 59 3.7 SSW 15 20 8 11 1017.3 1016.8 0.0
09/06:30am 12.5 9.5 5.9 64 3.1 SW 11 17 6 9 1016.7 1016.2 0.0
09/06:00am 12.4 8.9 5.6 63 3.2 SW 13 15 7 8 1016.3 1015.8 0.0
09/05:30am 12.8 9.3 5.5 61 3.4 SSW 13 17 7 9 1015.9 1015.4 0.0
09/05:00am 13.5 9.6 5.2 57 3.9 SSW 15 20 8 11 1015.6 1015.1 0.0
09/04:30am 13.8 9.4 4.9 55 4.2 SSW 17 20 9 11 1015.1 1014.6 0.0
09/04:00am 14.7 9.9 4.4 50 4.8 SSW 19 30 10 16 1014.5 1014.0 0.0
09/03:30am 15.4 10.0 4.5 48 5.1 SSW 22 30 12 16 1013.9 1013.3 0.0
09/03:00am 15.9 10.1 4.3 46 5.4 SSW 24 32 13 17 1013.8 1013.2 0.0
09/02:30am 16.3 11.6 5.3 48 5.3 SSW 19 28 10 15 1013.8 1013.2 0.0
09/02:00am 16.7 11.8 5.3 47 5.5 SSW 20 30 11 16 1013.8 1013.2 0.0
09/01:30am 17.6 12.0 5.2 44 6.0 SSW 24 32 13 17 1013.7 1013.1 0.0
09/01:00am 18.0 12.7 4.9 42 6.3 SSW 22 33 12 18 1013.6 1013.0 0.0
09/12:30am 18.6 12.9 4.8 40 6.7 SSW 24 33 13 18 1013.3 1012.7 0.0
09/12:00am 19.1 13.6 4.1 37 7.2 SSW 22 33 12 18 1012.9 1012.3 0.0
 
Date/Time
EDT
Temp
°C
App
Temp
°C
Dew
Point
°C
Rel
Hum
%
Delta-T
°C
Wind Press
QNH
hPa
Press
MSL
hPa
Rain since
9am
mm
Dir  Spd
km/h
Gust
km/h
Spd
kts
Gust
kts
08/11:30pm 19.7 13.8 3.8 35 7.6 SW 24 30 13 16 1012.2 1011.7 0.0
08/11:00pm 19.5 15.0 4.0 36 7.4 SSW 17 24 9 13 1011.7 1011.2 0.0
08/10:30pm 18.8 15.3 5.3 41 6.6 SW 13 19 7 10 1011.2 1010.7 0.0
08/10:00pm 20.1 16.4 4.2 35 7.7 SW 13 17 7 9 1010.6 1010.1 0.0
08/09:30pm 21.7 16.5 3.4 30 8.8 SW 20 28 11 15 1010.0 1009.5 0.0
08/09:00pm 22.4 16.4 3.5 29 9.2 SW 24 33 13 18 1009.4 1008.9 0.0
08/08:30pm 23.2 17.6 3.7 28 9.5 SW 22 32 12 17 1008.8 1008.3 0.0
08/08:00pm 24.4 17.8 1.9 23 10.7 SW 26 37 14 20 1008.1 1007.6 0.0
08/07:30pm 25.3 17.3 1.4 21 11.4 SW 33 44 18 24 1007.4 1006.9 0.0
08/07:00pm 25.9 17.6 1.9 21 11.6 SW 35 52 19 28 1006.5 1006.0 0.0
08/06:30pm 26.7 19.6 5.6 26 10.9 SW 32 50 17 27 1005.9 1005.4 0.0
08/06:00pm 26.7 19.2 6.2 27 10.8 SW 35 50 19 27 1005.6 1005.1 0.0
08/05:30pm 26.5 19.0 6.5 28 10.5 SW 35 54 19 29 1005.7 1005.2 0.0
08/05:21pm 26.1 18.6 6.2 28 10.4 WSW 35 54 19 29 1005.8 1005.3 0.0
08/05:00pm 25.2 18.3 8.7 35 9.0 SW 35 50 19 27 1006.1 1005.6 0.0
08/04:30pm 24.5 17.7 12.1 46 7.1 SW 39 50 21 27 1005.7 1005.2 0.0
08/04:00pm 23.7 19.5 13.6 53 5.9 SW 28 44 15 24 1005.7 1005.2 0.0
08/03:30pm 22.7 17.4 13.2 55 5.5 SSW 33 46 18 25 1005.6 1005.1 0.0
08/03:00pm 20.5 15.0 13.7 65 3.9 SW 35 50 19 27 1005.5 1005.0 0.0
08/02:30pm 20.6 13.9 14.5 68 3.6 SW 43 61 23 33 1004.8 1004.3 0.0
08/02:00pm 25.7 19.8 18.1 63 4.8 SW 46 67 25 36 1003.6 1003.0 0.0
08/01:30pm 26.6 20.9 18.5 61 5.2 SW 46 65 25 35 1003.5 1002.9 0.0
08/01:20pm 28.4 23.1 14.3 42 8.5 W 35 63 19 34 1003.5 1002.9 0.0
08/01:17pm 31.5 26.8 14.2 35 10.5 W 32 52 17 28 1003.1 1002.5 0.0
08/01:00pm 31.5 26.8 14.2 35 10.6 WNW 32 43 17 23 1002.7 1002.1 0.0
08/12:44pm 33.0 28.0 14.1 32 11.6 WNW 33 54 18 29 1002.7 1002.1 0.0
08/12:30pm 32.8 28.2 13.4 30 11.7 NW 30 43 16 23 1003.2 1002.6 0.0
08/12:00pm 32.5 28.4 13.7 32 11.5 WNW 28 39 15 21 1003.7 1003.1 0.0
08/11:30am 32.7 28.2 13.8 31 11.5 NW 30 43 16 23 1004.1 1003.5 0.0
08/11:00am 32.3 28.3 14.0 33 11.2 NW 28 39 15 21 1004.3 1003.7 0.0
08/10:30am 31.4 27.1 14.5 35 10.3 NW 30 39 16 21 1004.6 1004.0 0.0
08/10:00am 30.6 26.9 15.1 39 9.6 NW 28 46 15 25 1004.8 1004.3 0.0
08/09:52am 30.6 26.8 15.8 40 9.2 NNW 30 48 16 26 1004.8 1004.3 0.0
08/09:30am 30.0 26.9 15.7 42 8.9 NW 26 37 14 20 1005.2 1004.7 0.0
08/09:00am 28.7 26.0 15.6 45 8.1 NNW 24 33 13 18 1005.4 1004.9 0.2
08/08:30am 27.1 24.6 15.1 47 7.3 NNW 22 32 12 17 1005.9 1005.4 0.2
08/08:00am 25.6 22.7 15.0 52 6.4 NNW 24 33 13 18 1005.9 1005.4 0.2
08/07:30am 24.3 21.9 14.4 54 5.9 N 20 30 11 16 1005.3 1004.8 0.2
08/07:00am 23.6 22.0 14.0 55 5.7 N 15 20 8 11 1005.3 1004.8 0.2
08/06:30am 22.9 20.6 13.1 54 5.7 N 17 22 9 12 1005.1 1004.6 0.2
08/06:00am 22.4 20.6 13.2 56 5.3 N 15 20 8 11 1004.9 1004.4 0.2
08/05:30am 22.2 20.4 13.3 57 5.1 N 15 19 8 10 1005.1 1004.6 0.2
08/05:00am 22.2 20.8 13.3 57 5.2 N 13 17 7 9 1005.3 1004.8 0.2
08/04:30am 22.4 20.6 13.2 56 5.3 N 15 17 8 9 1005.4 1004.9 0.2
08/04:00am 22.2 20.4 13.3 57 5.2 N 15 19 8 10 1005.2 1004.7 0.2
08/03:30am 22.7 21.0 13.5 56 5.3 N 15 19 8 10 1005.6 1005.1 0.2
08/03:00am 23.2 21.3 13.1 53 5.9 N 15 19 8 10 1005.7 1005.2 0.2
08/02:30am 22.8 21.0 13.3 55 5.5 N 15 19 8 10 1006.2 1005.7 0.2
08/02:00am 23.5 21.7 13.4 53 5.9 N 15 19 8 10 1006.9 1006.4 0.2
08/01:30am 24.2 21.9 13.1 50 6.5 N 17 22 9 12 1007.6 1007.1 0.2
08/01:00am 23.7 22.3 13.3 52 6.1 N 13 17 7 9 1008.2 1007.7 0.2
08/12:30am 23.3 22.0 13.8 55 5.6 N 13 15 7 8 1008.6 1008.1 0.2
08/12:00am 23.5 22.3 13.9 55 5.6 N 13 15 7 8 1008.8 1008.3 0.2
 
Date/Time
EDT
Temp
°C
App
Temp
°C
Dew
Point
°C
Rel
Hum
%
Delta-T
°C
Wind Press
QNH
hPa
Press
MSL
hPa
Rain since
9am
mm
Dir  Spd
km/h
Gust
km/h
Spd
kts
Gust
kts
07/11:30pm 24.1 23.4 14.2 54 5.9 N 11 13 6 7 1009.0 1008.5 0.2
07/11:00pm 24.2 23.6 14.6 55 5.7 NNE 11 15 6 8 1009.0 1008.5 0.2
07/10:30pm 24.1 24.2 16.4 62 4.7 NE 11 13 6 7 1009.2 1008.7 0.2
07/10:00pm 23.8 24.7 16.1 62 4.7 SE 6 7 3 4 1009.1 1008.6 0.2
07/09:30pm 24.3 25.5 16.8 63 4.6 S 6 7 3 4 1009.1 1008.6 0.2
07/09:00pm 25.4 27.1 16.3 57 5.6 ENE 2 6 1 3 1009.5 1009.0 0.2
07/08:30pm 27.1 28.9 15.5 49 7.1 CALM 0 4 0 2 1009.6 1009.1 0.2
07/08:00pm 29.4 28.5 11.5 33 10.4 NE 7 9 4 5 1009.7 1009.2 0.2
07/07:30pm 30.2 29.2 10.2 29 11.4 NNE 6 9 3 5 1009.8 1009.3 0.2
07/07:00pm 31.3 30.4 10.6 28 11.9 NW 6 11 3 6 1009.8 1009.3 0.2
07/06:30pm 30.9 29.3 10.3 28 11.8 NE 9 17 5 9 1009.9 1009.4 0.2
07/06:00pm 31.0 29.5 10.4 28 11.8 NW 9 15 5 8 1010.2 1009.7 0.2
07/05:30pm 30.9 29.3 10.3 28 11.8 NE 9 20 5 11 1010.5 1010.0 0.2
07/05:00pm 30.9 28.7 10.8 29 11.6 ENE 13 20 7 11 1010.9 1010.4 0.2
07/04:30pm 31.2 30.1 10.5 28 11.9 SW 7 13 4 7 1011.4 1010.9 0.2
07/04:00pm 30.4 29.4 10.9 30 11.3 NNE 7 11 4 6 1012.0 1011.5 0.2
07/03:30pm 30.3 28.4 9.2 27 11.8 E 9 19 5 10 1012.5 1012.0 0.2
07/03:00pm 29.1 27.5 10.3 31 10.7 N 9 17 5 9 1013.1 1012.5 0.2
07/02:30pm 29.2 27.5 11.3 33 10.3 NE 11 17 6 9 1013.5 1012.9 0.2
07/02:00pm 28.9 28.2 13.2 38 9.3 ENE 9 13 5 7 1013.7 1013.1 0.2
07/01:30pm 27.9 27.3 14.5 44 8.1 N 11 17 6 9 1014.2 1013.7 0.2
07/01:00pm 26.9 26.2 13.3 43 8.0 NNE 9 17 5 9 1014.8 1014.3 0.2
07/12:30pm 25.9 24.3 12.7 44 7.7 NNE 13 19 7 10 1015.3 1014.8 0.2
07/12:00pm 25.4 24.6 13.9 49 6.8 ENE 11 19 6 10 1015.7 1015.2 0.2
07/11:30am 24.5 24.2 15.4 57 5.5 E 11 20 6 11 1016.0 1015.5 0.2
07/11:00am 23.6 23.4 15.6 61 4.8 NE 11 17 6 9 1016.1 1015.6 0.2
07/10:30am 22.8 22.9 15.4 63 4.4 ENE 9 13 5 7 1016.5 1016.0 0.2
07/10:00am 21.8 21.9 15.4 67 3.8 NE 9 17 5 9 1016.8 1016.3 0.0
07/09:30am 21.2 20.5 14.4 65 4.0 ENE 11 19 6 10 1017.1 1016.6 0.0
07/09:00am 20.6 20.3 14.3 67 3.7 ENE 9 13 5 7 1016.9 1016.4 9.6
07/08:30am 19.6 19.7 14.4 72 3.0 E 7 11 4 6 1016.9 1016.4 9.6
07/08:00am 18.6 18.6 15.3 81 1.9 ENE 9 11 5 6 1016.6 1016.1 9.6
07/07:30am 17.5 19.5 16.0 91 0.9 CALM 0 0 0 0 1016.2 1015.7 9.6
07/07:00am 16.0 17.7 15.2 95 0.5 CALM 0 0 0 0 1015.5 1015.0 9.6
07/06:30am 14.8 16.0 13.8 94 0.6 CALM 0 0 0 0 1015.0 1014.5 9.6
07/06:00am 15.0 15.6 14.2 95 0.5 N 4 9 2 5 1014.7 1014.2 9.6
07/05:30am 15.2 14.9 14.4 95 0.5 SSW 9 13 5 7 1014.1 1013.6 9.6
07/05:00am 15.3 16.7 14.3 94 0.6 CALM 0 0 0 0 1013.8 1013.2 9.6
07/04:30am 15.5 16.9 14.5 94 0.6 CALM 0 0 0 0 1013.6 1013.0 9.6

Other Formats:

Comma delimited format used in spreadsheet applications
http://www.bom.gov.au/fwo/IDN60801/IDN60801.95695.axf

JavaScript Object Notation format (JSON) in row-major order
http://www.bom.gov.au/fwo/IDN60801/IDN60801.95695.json